Time;durP1;ratioP1;P1;durP2;ratioP2;P2;SDS_P1;SDS_P2;PMS_P1;PMS_P2;Temp;Humidity;BMP_temperature;BMP_pressure;BME280_temperature;BME280_humidity;BME280_pressure;Samples;Min_cycle;Max_cycle;Signal;HPM_P1;HPM_P2
2022/01/25 00:26:31;;;;;;;20.13;11.65;;;0.10;99.90;;;;;;4995165;28;20049;-68
2022/01/25 00:29:15;;;;;;;19.65;10.82;;;0.10;99.90;;;;;;5006295;28;20571;-67
2022/01/25 00:31:43;;;;;;;19.42;11.38;;;0.10;99.90;;;;;;5006448;28;20145;-67
2022/01/25 00:34:11;;;;;;;21.40;12.38;;;0.10;99.90;;;;;;5006063;28;20050;-67
2022/01/25 00:36:38;;;;;;;21.67;12.32;;;0.00;99.90;;;;;;5005485;28;20056;-67
2022/01/25 00:39:05;;;;;;;21.17;12.02;;;0.00;99.90;;;;;;5005675;28;20056;-68
2022/01/25 00:41:33;;;;;;;23.20;11.43;;;0.00;99.90;;;;;;5005480;28;20531;-67
2022/01/25 00:44:01;;;;;;;20.30;12.10;;;0.00;99.90;;;;;;5004399;28;20045;-69
2022/01/25 00:46:29;;;;;;;21.58;12.20;;;0.00;99.90;;;;;;4995811;28;20060;-68
2022/01/25 00:49:01;;;;;;;24.90;12.88;;;-0.10;99.90;;;;;;5009174;28;20041;-67
2022/01/25 00:56:43;;;;;;;17.30;9.25;;;-0.10;99.90;;;;;;5031446;28;20067;-66
2022/01/25 00:59:14;;;;;;;21.85;11.07;;;-0.10;99.90;;;;;;5030799;28;20132;-67
2022/01/25 01:01:43;;;;;;;17.40;10.57;;;-0.10;99.90;;;;;;5028692;28;20473;-67
2022/01/25 01:04:11;;;;;;;21.08;11.30;;;-0.10;99.90;;;;;;5020142;28;20508;-67
2022/01/25 01:06:41;;;;;;;21.80;11.40;;;-0.10;99.90;;;;;;5029762;28;20046;-67
2022/01/25 01:09:11;;;;;;;21.50;11.25;;;-0.10;99.90;;;;;;5031376;28;20127;-68
2022/01/25 01:11:46;;;;;;;21.48;11.35;;;-0.10;99.90;;;;;;5031668;28;20042;-66
2022/01/25 01:43:45;;;;;;;23.90;11.70;;;-0.30;99.90;;;;;;5035545;28;20695;-67
2022/01/25 01:48:51;;;;;;;25.92;12.40;;;-0.30;99.90;;;;;;5038128;28;20040;-67
2022/01/25 01:51:34;;;;;;;22.02;11.70;;;-0.30;99.90;;;;;;5029791;28;20088;-67
2022/01/25 01:54:05;;;;;;;20.92;11.93;;;-0.30;99.90;;;;;;5042837;28;20047;-67
2022/01/25 01:56:34;;;;;;;21.50;11.77;;;-0.40;99.90;;;;;;5043049;28;20139;-67
2022/01/25 01:59:05;;;;;;;22.85;12.45;;;-0.40;99.90;;;;;;5029317;28;20041;-68
2022/01/25 02:01:34;;;;;;;22.42;11.85;;;-0.50;99.90;;;;;;5029759;28;20050;-67
2022/01/25 02:04:04;;;;;;;22.75;11.48;;;-0.50;99.90;;;;;;5043184;28;20095;-66
2022/01/25 02:06:32;;;;;;;20.98;10.90;;;-0.50;99.90;;;;;;5030298;28;20049;-67
2022/01/25 02:08:59;;;;;;;20.67;11.38;;;-0.50;99.90;;;;;;5030684;28;20571;-67
2022/01/25 02:11:26;;;;;;;20.95;11.70;;;-0.50;99.90;;;;;;5028291;28;20140;-68
2022/01/25 02:13:54;;;;;;;22.95;11.93;;;-0.50;99.90;;;;;;5029199;28;20124;-67
2022/01/25 02:16:40;;;;;;;21.40;11.43;;;-0.60;99.90;;;;;;5019277;28;20054;-67
2022/01/25 02:24:42;;;;;;;21.58;11.98;;;-0.50;99.90;;;;;;5034327;28;20036;-67
2022/01/25 02:27:10;;;;;;;25.30;12.63;;;-0.50;99.90;;;;;;5044125;28;20387;-67
2022/01/25 02:29:38;;;;;;;23.02;11.48;;;-0.50;99.90;;;;;;5044186;28;20480;-66
2022/01/25 02:32:07;;;;;;;22.27;12.05;;;-0.50;99.90;;;;;;5043898;28;20407;-66
2022/01/25 02:34:35;;;;;;;21.02;11.77;;;-0.60;99.90;;;;;;5043088;28;20045;-66
2022/01/25 02:37:07;;;;;;;25.60;12.20;;;-0.60;99.90;;;;;;5039999;28;20390;-66
2022/01/25 02:39:37;;;;;;;26.90;11.77;;;-0.60;99.90;;;;;;5030208;28;20428;-67
2022/01/25 02:42:06;;;;;;;21.67;12.55;;;-0.60;99.90;;;;;;5035939;28;20057;-66
2022/01/25 02:44:35;;;;;;;25.23;12.18;;;-0.60;99.90;;;;;;5028049;28;20053;-66
2022/01/25 02:49:34;;;;;;;24.35;12.00;;;-0.60;99.90;;;;;;5032679;28;20048;-67
2022/01/25 02:52:05;;;;;;;25.90;12.90;;;-0.60;99.90;;;;;;5033981;28;20350;-66
2022/01/25 02:54:35;;;;;;;24.58;12.80;;;-0.60;99.90;;;;;;5032998;28;20051;-66
2022/01/25 02:57:03;;;;;;;24.15;12.25;;;-0.70;99.90;;;;;;5040322;28;20045;-67
2022/01/25 02:59:30;;;;;;;24.52;12.85;;;-0.70;99.90;;;;;;5033537;28;20053;-67
2022/01/25 03:01:57;;;;;;;22.58;11.68;;;-0.70;99.90;;;;;;5035546;28;20053;-68
2022/01/25 03:04:24;;;;;;;21.95;11.85;;;-0.70;99.90;;;;;;5033991;28;20048;-67
2022/01/25 03:06:52;;;;;;;22.95;11.85;;;-0.80;99.90;;;;;;5034485;28;20069;-67
2022/01/25 03:09:19;;;;;;;23.35;12.13;;;-0.80;99.90;;;;;;5035298;28;20042;-67
2022/01/25 03:12:08;;;;;;;20.42;11.18;;;-0.80;99.90;;;;;;5026751;28;20128;-67
2022/01/25 03:15:00;;;;;;;24.35;12.20;;;-0.80;99.90;;;;;;5032781;28;20060;-67
2022/01/25 03:17:30;;;;;;;21.50;11.95;;;-0.80;99.90;;;;;;5032526;28;20465;-66
2022/01/25 03:20:07;;;;;;;23.50;11.63;;;-0.80;99.90;;;;;;5028087;28;20051;-67
2022/01/25 03:23:35;;;;;;;21.38;10.77;;;-0.80;99.90;;;;;;5026521;28;20048;-67
2022/01/25 03:25:31;;;;;;;24.67;12.25;;;-0.80;99.90;;;;;;5045644;28;20045;-66
2022/01/25 03:27:59;;;;;;;23.50;12.32;;;-0.90;99.90;;;;;;5048536;28;20462;-66
2022/01/25 03:30:26;;;;;;;18.80;11.30;;;-0.90;99.90;;;;;;5035977;28;20055;-66
2022/01/25 03:32:54;;;;;;;23.45;11.88;;;-0.90;99.90;;;;;;5048085;28;20033;-66
2022/01/25 03:35:21;;;;;;;20.55;11.45;;;-0.90;99.90;;;;;;5040045;28;20073;-66
2022/01/25 03:37:48;;;;;;;23.52;12.10;;;-0.90;99.90;;;;;;5046595;28;20416;-67
2022/01/25 03:40:16;;;;;;;23.75;12.38;;;-0.90;99.90;;;;;;5047844;28;20041;-67
2022/01/25 03:42:45;;;;;;;23.13;12.13;;;-0.90;99.90;;;;;;5017658;28;20041;-66
2022/01/25 03:45:18;;;;;;;23.15;12.02;;;-0.90;99.90;;;;;;5048698;28;20049;-67
2022/01/25 03:48:00;;;;;;;23.58;12.27;;;-0.90;99.90;;;;;;5045802;28;20045;-67
2022/01/25 03:50:27;;;;;;;22.13;11.65;;;-0.90;99.90;;;;;;5038544;28;20049;-67
2022/01/25 03:52:55;;;;;;;25.30;12.88;;;-0.90;99.90;;;;;;5037940;28;20041;-67
2022/01/25 03:55:22;;;;;;;23.38;11.48;;;-0.90;99.90;;;;;;5032217;28;20099;-67
2022/01/25 03:57:49;;;;;;;24.25;12.05;;;-0.90;99.90;;;;;;5029149;28;20435;-67
2022/01/25 04:00:17;;;;;;;26.35;12.30;;;-0.90;99.90;;;;;;5027238;28;20136;-67
2022/01/25 04:02:53;;;;;;;24.00;12.63;;;-0.90;99.90;;;;;;5037728;28;20057;-67
2022/01/25 04:05:33;;;;;;;25.15;12.25;;;-0.90;99.90;;;;;;5030291;28;20037;-67
2022/01/25 04:08:00;;;;;;;22.48;12.18;;;-1.00;99.90;;;;;;5027908;28;20159;-67
2022/01/25 04:10:28;;;;;;;22.27;12.20;;;-1.00;99.90;;;;;;5028270;28;20049;-67
2022/01/25 04:12:55;;;;;;;22.45;11.88;;;-1.00;99.90;;;;;;5020384;28;20136;-67
2022/01/25 04:15:23;;;;;;;25.45;13.20;;;-1.00;99.90;;;;;;5028876;28;20049;-67
2022/01/25 04:17:59;;;;;;;24.27;12.00;;;-1.00;99.90;;;;;;5023645;28;20124;-67
2022/01/25 04:20:31;;;;;;;25.48;12.95;;;-1.00;99.90;;;;;;5045966;28;20067;-67
2022/01/25 04:25:44;;;;;;;23.20;12.30;;;-1.00;99.90;;;;;;5028701;28;20353;-67
2022/01/25 04:28:12;;;;;;;24.30;13.27;;;-1.00;99.90;;;;;;5030251;28;20566;-66
2022/01/25 04:30:39;;;;;;;26.75;13.07;;;-1.00;99.90;;;;;;5032976;28;20123;-67
2022/01/25 04:33:18;;;;;;;24.70;12.95;;;-1.00;99.90;;;;;;5010998;28;20049;-67
2022/01/25 04:36:11;;;;;;;23.65;13.38;;;-1.00;99.90;;;;;;5035540;28;20076;-67
2022/01/25 04:49:47;;;;;;;23.60;13.20;;;-1.00;99.90;;;;;;5032643;28;20045;-66
2022/01/25 04:52:19;;;;;;;25.58;14.00;;;-1.10;99.90;;;;;;5032275;28;20523;-67
2022/01/25 04:54:59;;;;;;;25.25;13.57;;;-1.00;99.90;;;;;;5033472;28;20162;-67
2022/01/25 05:00:20;;;;;;;31.13;14.68;;;-1.00;99.90;;;;;;5031034;28;20037;-66
2022/01/25 05:02:53;;;;;;;28.88;13.60;;;-1.00;99.90;;;;;;5030533;28;20544;-66
2022/01/25 05:10:19;;;;;;;28.30;14.45;;;-1.00;99.90;;;;;;5049957;28;20141;-67
2022/01/25 05:12:53;;;;;;;28.75;13.15;;;-1.00;99.90;;;;;;5049168;28;20123;-67
2022/01/25 05:23:28;;;;;;;34.67;15.10;;;-0.90;99.90;;;;;;5023205;28;20056;-67
2022/01/25 05:25:55;;;;;;;32.55;14.52;;;-0.90;99.90;;;;;;5020977;28;20546;-66
2022/01/25 05:28:23;;;;;;;38.67;18.17;;;-0.90;99.90;;;;;;5034748;28;20041;-67
2022/01/25 05:30:50;;;;;;;34.40;17.00;;;-0.80;99.90;;;;;;5041728;28;20107;-66
2022/01/25 05:33:18;;;;;;;30.25;15.43;;;-0.70;99.90;;;;;;5041952;28;20055;-67
2022/01/25 05:35:45;;;;;;;34.47;18.15;;;-0.70;99.90;;;;;;5042823;28;20045;-66
2022/01/25 05:38:12;;;;;;;35.72;17.42;;;-0.60;99.90;;;;;;5041928;28;20124;-67
2022/01/25 05:40:50;;;;;;;31.13;15.07;;;-0.60;99.90;;;;;;5045450;28;20550;-66
2022/01/25 05:48:32;;;;;;;33.35;17.02;;;-0.50;99.90;;;;;;5040305;28;20060;-67
2022/01/25 05:51:00;;;;;;;34.33;16.95;;;-0.50;99.90;;;;;;5042236;28;20045;-69
2022/01/25 05:53:27;;;;;;;30.25;16.63;;;-0.50;99.90;;;;;;5024506;28;20481;-67
2022/01/25 05:55:55;;;;;;;34.17;16.65;;;-0.50;99.90;;;;;;5029529;28;20447;-67
2022/01/25 05:58:22;;;;;;;33.05;15.93;;;-0.50;99.90;;;;;;5031468;28;20041;-67
2022/01/25 06:00:50;;;;;;;31.80;16.92;;;-0.50;99.90;;;;;;5030098;28;20037;-66
2022/01/25 06:03:18;;;;;;;29.90;17.15;;;-0.50;99.90;;;;;;5028769;28;20057;-66
2022/01/25 06:05:45;;;;;;;37.55;17.15;;;-0.50;99.90;;;;;;5030340;28;20041;-68
2022/01/25 06:08:13;;;;;;;37.55;16.50;;;-0.50;99.90;;;;;;5042614;28;20136;-68
2022/01/25 06:10:40;;;;;;;38.20;19.73;;;-0.50;99.90;;;;;;5034431;28;20045;-67
2022/01/25 06:13:07;;;;;;;36.58;17.80;;;-0.50;99.90;;;;;;5030866;28;20423;-67
2022/01/25 06:15:35;;;;;;;37.53;18.25;;;-0.60;99.90;;;;;;5029938;28;20148;-67
2022/01/25 06:18:02;;;;;;;43.85;19.48;;;-0.60;99.90;;;;;;5029023;28;20144;-66
2022/01/25 06:20:30;;;;;;;37.42;18.05;;;-0.60;99.90;;;;;;5029507;28;20053;-67
2022/01/25 06:22:57;;;;;;;46.75;17.88;;;-0.50;99.90;;;;;;5030143;28;20049;-66
2022/01/25 06:25:24;;;;;;;40.30;17.65;;;-0.60;99.90;;;;;;5018263;28;20052;-67
2022/01/25 06:27:51;;;;;;;39.55;17.98;;;-0.60;99.90;;;;;;5034501;28;20044;-67
2022/01/25 06:30:20;;;;;;;38.45;17.45;;;-0.60;99.90;;;;;;5047572;28;20439;-66
2022/01/25 06:32:48;;;;;;;46.13;18.17;;;-0.60;99.90;;;;;;5045527;28;20055;-67
2022/01/25 06:35:16;;;;;;;46.88;18.30;;;-0.70;99.90;;;;;;5028094;28;20046;-65
2022/01/25 06:37:44;;;;;;;43.60;16.85;;;-0.70;99.90;;;;;;5039454;28;20583;-67
2022/01/25 06:40:12;;;;;;;52.58;16.88;;;-0.70;99.90;;;;;;5022096;28;20055;-67
2022/01/25 06:42:39;;;;;;;35.85;16.65;;;-0.70;99.90;;;;;;5032117;28;20038;-67
2022/01/25 06:45:14;;;;;;;38.45;17.58;;;-0.70;99.90;;;;;;5033186;28;20140;-67
2022/01/25 06:47:44;;;;;;;37.65;17.50;;;-0.60;99.90;;;;;;5026239;28;20053;-67
2022/01/25 06:50:13;;;;;;;43.08;18.13;;;-0.60;99.90;;;;;;5030662;28;20595;-67
2022/01/25 06:52:42;;;;;;;42.67;19.27;;;-0.50;99.90;;;;;;5027012;28;20038;-67
2022/01/25 06:55:19;;;;;;;41.55;18.73;;;-0.50;99.90;;;;;;5029941;28;20053;-67
2022/01/25 06:57:47;;;;;;;45.40;19.60;;;-0.40;99.90;;;;;;5029694;28;20056;-67
2022/01/25 07:00:22;;;;;;;48.30;19.02;;;-0.30;99.90;;;;;;5029258;28;20132;-67
2022/01/25 07:02:50;;;;;;;45.40;18.88;;;-0.20;99.90;;;;;;5029654;28;20052;-67
2022/01/25 07:05:18;;;;;;;35.55;18.08;;;-0.20;99.90;;;;;;5028548;28;20063;-67
2022/01/25 07:07:46;;;;;;;47.42;17.52;;;-0.20;99.90;;;;;;5026478;28;20096;-66
2022/01/25 07:10:14;;;;;;;44.78;17.98;;;-0.20;99.90;;;;;;5026454;28;20386;-67
2022/01/25 07:12:42;;;;;;;48.83;18.48;;;0.00;99.90;;;;;;5022558;28;20124;-67
2022/01/25 07:15:09;;;;;;;57.22;17.25;;;-0.10;99.90;;;;;;5033685;28;20049;-68
2022/01/25 07:17:37;;;;;;;40.17;16.42;;;-0.10;99.90;;;;;;5028722;28;20049;-66
2022/01/25 07:20:06;;;;;;;40.33;16.85;;;-0.10;99.90;;;;;;5031184;28;20519;-66
2022/01/25 07:22:34;;;;;;;45.42;16.83;;;-0.10;99.90;;;;;;5028297;28;20427;-67
2022/01/25 07:25:05;;;;;;;53.47;17.42;;;-0.10;99.90;;;;;;5026079;28;20050;-67
2022/01/25 07:27:32;;;;;;;64.68;18.35;;;-0.20;99.90;;;;;;5029372;28;20041;-66
2022/01/25 07:30:00;;;;;;;53.78;17.67;;;-0.20;99.90;;;;;;5032344;28;20037;-67
2022/01/25 07:32:27;;;;;;;44.45;18.05;;;-0.30;99.90;;;;;;5029058;28;20076;-67
2022/01/25 07:34:54;;;;;;;58.80;22.50;;;-0.30;99.90;;;;;;5038961;28;20053;-65
2022/01/25 07:37:38;;;;;;;47.45;18.85;;;-0.20;99.90;;;;;;5028123;28;20655;-65
2022/01/25 07:40:16;;;;;;;45.00;16.20;;;-0.10;99.90;;;;;;5034155;28;20067;-65
2022/01/25 07:42:45;;;;;;;46.45;18.05;;;0.00;99.90;;;;;;5031314;28;20053;-67
2022/01/25 07:45:22;;;;;;;43.88;17.00;;;0.00;99.90;;;;;;5012873;28;20054;-66
2022/01/25 07:47:52;;;;;;;51.50;18.65;;;0.00;99.90;;;;;;5028179;28;20072;-66
2022/01/25 07:50:22;;;;;;;51.45;17.35;;;0.00;99.90;;;;;;5034521;28;20041;-67
2022/01/25 07:52:49;;;;;;;58.60;18.67;;;0.10;99.90;;;;;;5035239;28;20048;-66
2022/01/25 07:55:17;;;;;;;51.08;18.10;;;0.10;99.90;;;;;;5032762;28;20107;-66
2022/01/25 07:57:44;;;;;;;45.28;16.40;;;0.00;99.90;;;;;;5031187;28;20049;-68
2022/01/25 08:00:12;;;;;;;48.67;17.48;;;0.10;99.90;;;;;;5031709;28;20033;-67
2022/01/25 08:02:44;;;;;;;43.67;16.58;;;0.10;99.90;;;;;;5032881;28;20124;-66
2022/01/25 08:05:20;;;;;;;41.08;17.40;;;0.20;99.90;;;;;;5028906;28;20034;-66
2022/01/25 08:08:07;;;;;;;44.20;18.13;;;0.30;99.90;;;;;;4953225;28;20120;-66
2022/01/25 08:10:48;;;;;;;47.10;17.00;;;0.30;99.90;;;;;;4969730;28;20034;-66
2022/01/25 08:13:35;;;;;;;47.38;18.23;;;0.40;99.90;;;;;;4967231;28;20050;-66
2022/01/25 08:16:22;;;;;;;48.20;17.50;;;0.50;99.90;;;;;;4932243;29;20063;-68
2022/01/25 08:18:51;;;;;;;52.83;19.08;;;0.50;99.90;;;;;;4932569;29;20047;-68
2022/01/25 08:21:41;;;;;;;47.35;17.52;;;0.60;99.90;;;;;;4874675;29;20080;-68
2022/01/25 08:24:16;;;;;;;39.60;16.73;;;0.70;99.90;;;;;;4875285;29;20053;-69
2022/01/25 08:26:53;;;;;;;44.22;18.23;;;0.70;99.90;;;;;;4876475;29;20415;-67
2022/01/25 08:29:24;;;;;;;42.88;16.67;;;0.80;99.90;;;;;;4873329;29;20040;-67
2022/01/25 08:32:00;;;;;;;45.13;17.55;;;0.80;99.90;;;;;;4875132;29;20072;-67
2022/01/25 08:34:42;;;;;;;42.00;18.88;;;0.90;99.90;;;;;;4871226;29;20053;-67
2022/01/25 08:37:21;;;;;;;44.97;16.95;;;0.90;99.90;;;;;;4874104;29;20056;-67
2022/01/25 08:39:52;;;;;;;46.08;17.45;;;1.00;99.90;;;;;;4872807;29;20437;-67
2022/01/25 08:42:51;;;;;;;43.38;19.08;;;0.90;99.90;;;;;;4874352;29;20116;-68
2022/01/25 08:45:25;;;;;;;53.83;21.90;;;0.90;99.90;;;;;;4908262;29;20056;-68
2022/01/25 08:47:59;;;;;;;47.53;18.88;;;0.90;99.90;;;;;;4932235;29;20111;-68
2022/01/25 08:50:38;;;;;;;43.20;18.20;;;0.90;99.90;;;;;;4923791;29;20060;-68
2022/01/25 08:53:20;;;;;;;48.05;18.63;;;1.00;99.90;;;;;;4935722;28;20137;-67
2022/01/25 08:56:11;;;;;;;49.65;18.88;;;1.00;99.90;;;;;;4969308;28;20074;-67
2022/01/25 08:58:42;;;;;;;42.83;18.30;;;1.00;99.90;;;;;;5006882;28;20137;-67
2022/01/25 09:01:10;;;;;;;50.50;19.33;;;1.00;99.90;;;;;;5029340;28;20552;-67
2022/01/25 09:03:38;;;;;;;43.25;18.23;;;1.00;99.90;;;;;;5031282;28;20045;-68
2022/01/25 09:06:06;;;;;;;42.75;18.75;;;1.10;99.90;;;;;;5032010;28;20128;-67
2022/01/25 09:08:34;;;;;;;45.30;18.70;;;1.20;99.90;;;;;;5030234;28;20072;-67
2022/01/25 09:11:04;;;;;;;49.45;19.02;;;1.20;99.90;;;;;;5038298;28;20041;-67
2022/01/25 09:13:33;;;;;;;47.42;19.30;;;1.30;99.90;;;;;;5038902;28;20045;-69
2022/01/25 09:16:00;;;;;;;56.30;21.42;;;1.30;99.90;;;;;;5021482;28;20504;-68
2022/01/25 09:18:29;;;;;;;52.42;20.17;;;1.30;99.90;;;;;;5040415;28;20114;-68
2022/01/25 09:20:56;;;;;;;56.10;21.15;;;1.30;99.90;;;;;;5048602;28;20045;-68
2022/01/25 09:23:25;;;;;;;54.42;21.30;;;1.20;99.90;;;;;;5034726;28;20141;-67
2022/01/25 09:25:55;;;;;;;59.70;21.92;;;1.30;99.90;;;;;;5030503;28;20430;-67
2022/01/25 09:28:23;;;;;;;54.85;21.80;;;1.30;99.90;;;;;;5030186;28;20045;-67
2022/01/25 09:30:51;;;;;;;47.10;19.23;;;1.40;99.90;;;;;;5030392;28;20320;-67
2022/01/25 09:33:25;;;;;;;46.38;20.88;;;1.50;99.90;;;;;;5021427;28;20041;-67
2022/01/25 09:35:56;;;;;;;53.08;22.13;;;1.60;99.90;;;;;;5044583;28;20103;-68
2022/01/25 09:38:25;;;;;;;52.70;21.30;;;1.60;99.90;;;;;;5032399;28;20436;-68
2022/01/25 09:40:53;;;;;;;53.05;21.80;;;1.60;99.90;;;;;;5044741;28;20049;-67
2022/01/25 09:43:23;;;;;;;47.97;21.13;;;1.70;99.90;;;;;;5024018;28;20045;-68
2022/01/25 09:45:51;;;;;;;51.80;21.63;;;1.60;99.90;;;;;;5025054;28;20039;-67
2022/01/25 09:48:19;;;;;;;53.50;21.52;;;1.50;99.90;;;;;;5029872;28;20050;-68
2022/01/25 09:50:46;;;;;;;51.63;22.70;;;1.50;99.90;;;;;;5030323;28;20086;-68
2022/01/25 09:53:14;;;;;;;52.40;21.83;;;1.50;99.90;;;;;;5028744;28;20065;-68
2022/01/25 09:55:44;;;;;;;51.08;21.95;;;1.50;99.90;;;;;;5040554;28;20045;-67
2022/01/25 09:58:13;;;;;;;53.00;23.10;;;1.50;99.90;;;;;;5034545;28;20073;-67
2022/01/25 10:00:44;;;;;;;53.92;22.60;;;1.50;99.90;;;;;;5025464;28;20415;-66
2022/01/25 10:03:24;;;;;;;54.13;21.42;;;1.50;99.90;;;;;;5025299;28;20416;-67
2022/01/25 10:05:55;;;;;;;56.28;23.27;;;1.50;99.90;;;;;;5026540;28;20522;-68
2022/01/25 10:08:25;;;;;;;59.20;24.43;;;1.50;99.90;;;;;;5029808;28;20429;-67
2022/01/25 10:10:59;;;;;;;46.40;20.67;;;1.60;99.90;;;;;;5023167;28;20390;-66
2022/01/25 10:13:38;;;;;;;51.38;20.58;;;1.60;99.90;;;;;;5025577;28;20049;-66
2022/01/25 10:16:17;;;;;;;51.75;21.70;;;1.70;99.90;;;;;;5033531;28;20049;-66
2022/01/25 10:18:47;;;;;;;60.15;22.10;;;1.80;99.90;;;;;;5039226;28;20079;-67
2022/01/25 10:21:22;;;;;;;46.10;20.35;;;1.90;99.90;;;;;;5033624;28;20069;-67
2022/01/25 10:24:10;;;;;;;48.50;20.02;;;1.90;99.90;;;;;;5030047;28;20044;-67
2022/01/25 10:26:49;;;;;;;46.75;20.50;;;1.90;99.90;;;;;;5017717;28;20449;-67
2022/01/25 10:29:23;;;;;;;50.80;21.20;;;2.00;99.90;;;;;;5027712;28;20042;-66
2022/01/25 10:31:58;;;;;;;51.38;20.58;;;2.00;99.90;;;;;;5027799;28;20420;-67
2022/01/25 10:34:32;;;;;;;47.38;20.88;;;2.00;99.90;;;;;;5032031;28;20041;-67
2022/01/25 10:37:05;;;;;;;46.92;22.17;;;2.10;99.90;;;;;;5029157;28;20049;-68
2022/01/25 10:39:35;;;;;;;50.67;21.85;;;2.10;99.90;;;;;;5031622;28;20059;-67
2022/01/25 10:42:08;;;;;;;46.80;20.42;;;2.10;99.90;;;;;;5027991;28;20068;-66
2022/01/25 10:44:56;;;;;;;51.40;21.13;;;2.20;99.90;;;;;;5030626;28;20053;-67
2022/01/25 10:47:42;;;;;;;48.20;20.77;;;2.30;99.90;;;;;;5030159;28;20050;-67
2022/01/25 10:50:31;;;;;;;53.03;21.73;;;2.20;99.90;;;;;;5028205;28;20401;-67
2022/01/25 10:53:10;;;;;;;47.95;18.75;;;2.30;99.90;;;;;;5030068;28;20029;-67
2022/01/25 10:55:41;;;;;;;45.85;19.65;;;2.20;99.90;;;;;;5032055;28;20212;-68
2022/01/25 10:58:10;;;;;;;48.50;20.88;;;2.20;99.90;;;;;;5027951;28;20511;-68
2022/01/25 11:00:45;;;;;;;43.53;20.00;;;2.30;99.90;;;;;;5033594;28;20052;-68
2022/01/25 11:03:30;;;;;;;47.65;20.92;;;2.30;99.90;;;;;;5024518;28;20049;-67
2022/01/25 11:06:22;;;;;;;56.80;23.52;;;2.30;99.90;;;;;;5035402;28;20507;-68
2022/01/25 11:08:54;;;;;;;50.53;23.38;;;2.20;99.90;;;;;;5036005;28;20492;-67
2022/01/25 11:11:32;;;;;;;50.88;20.63;;;2.10;99.90;;;;;;5038941;28;20229;-67
2022/01/25 11:14:50;;;;;;;52.42;21.70;;;2.20;99.90;;;;;;5037178;28;20060;-67
2022/01/25 11:16:48;;;;;;;46.30;20.77;;;2.20;99.90;;;;;;5028323;28;20420;-67
2022/01/25 11:19:16;;;;;;;47.08;20.40;;;2.30;99.90;;;;;;5026020;28;20512;-67
2022/01/25 11:21:44;;;;;;;51.17;22.15;;;2.30;99.90;;;;;;5036799;28;20178;-67
2022/01/25 11:24:15;;;;;;;53.88;24.48;;;2.10;99.90;;;;;;5036484;28;20050;-68
2022/01/25 11:26:44;;;;;;;53.58;23.92;;;2.00;99.90;;;;;;5035737;28;20045;-68
2022/01/25 11:29:12;;;;;;;54.40;21.08;;;2.00;99.90;;;;;;5022918;28;20048;-68
2022/01/25 11:31:44;;;;;;;54.20;24.42;;;2.00;99.90;;;;;;5028681;28;20043;-67
2022/01/25 11:34:14;;;;;;;65.63;29.50;;;2.10;99.90;;;;;;5008366;28;20706;-67
2022/01/25 11:37:01;;;;;;;57.20;25.40;;;2.10;99.90;;;;;;5030077;28;20075;-68
2022/01/25 11:39:30;;;;;;;50.97;24.55;;;2.10;99.90;;;;;;5033234;28;20038;-66
2022/01/25 11:42:24;;;;;;;55.17;25.40;;;2.10;99.90;;;;;;5025603;28;20584;-67
2022/01/25 11:44:58;;;;;;;53.28;23.50;;;2.10;99.90;;;;;;5020014;28;20051;-67
2022/01/25 11:47:42;;;;;;;56.30;23.08;;;2.20;99.90;;;;;;5024258;28;20041;-67
2022/01/25 11:50:13;;;;;;;53.17;24.13;;;2.20;99.90;;;;;;5004781;28;20513;-67
2022/01/25 11:52:54;;;;;;;62.10;26.65;;;2.30;99.90;;;;;;5030122;28;20476;-67
2022/01/25 11:55:49;;;;;;;57.30;25.08;;;2.20;99.90;;;;;;5024925;28;20455;-68
2022/01/25 11:58:30;;;;;;;59.78;26.67;;;2.10;99.90;;;;;;4997063;28;20049;-67
2022/01/25 12:01:15;;;;;;;65.65;27.13;;;2.00;99.90;;;;;;5023598;28;20081;-67
2022/01/25 12:03:52;;;;;;;60.17;26.92;;;2.00;99.90;;;;;;5031665;28;20038;-66
2022/01/25 12:06:49;;;;;;;60.47;26.15;;;2.00;99.90;;;;;;5033948;28;20042;-67
2022/01/25 12:11:59;;;;;;;64.78;28.27;;;2.00;99.90;;;;;;5036049;28;20053;-67
2022/01/25 12:14:51;;;;;;;58.50;26.08;;;2.00;99.90;;;;;;5029048;28;20045;-68
2022/01/25 12:17:23;;;;;;;59.63;26.00;;;2.00;99.90;;;;;;5032335;28;20049;-68
2022/01/25 12:19:58;;;;;;;57.92;24.95;;;2.00;99.90;;;;;;5026935;28;20037;-68
2022/01/25 12:22:26;;;;;;;56.78;25.15;;;2.00;99.90;;;;;;5034525;28;20496;-68
2022/01/25 12:25:19;;;;;;;59.88;25.05;;;2.00;99.90;;;;;;5033134;28;20056;-68
2022/01/25 12:27:50;;;;;;;;;;;1.90;99.90;;;;;;5022508;28;20129;-69
2022/01/25 12:30:27;;;;;;;63.03;24.70;;;1.80;99.90;;;;;;5024964;28;19931;-69
2022/01/25 12:33:04;;;;;;;59.15;25.27;;;1.70;99.90;;;;;;5016225;28;20280;-69
2022/01/25 12:35:42;;;;;;;62.40;26.80;;;1.70;99.90;;;;;;5027150;28;20558;-68
2022/01/25 12:38:15;;;;;;;60.85;25.55;;;1.70;99.90;;;;;;5036521;28;20520;-68
2022/01/25 12:40:48;;;;;;;69.95;26.80;;;1.70;99.90;;;;;;5021875;28;20045;-68
2022/01/25 12:43:18;;;;;;;66.50;27.90;;;1.70;99.90;;;;;;5027030;28;20045;-68
2022/01/25 12:45:51;;;;;;;61.60;27.17;;;1.60;99.90;;;;;;5034409;28;20613;-68
2022/01/25 12:48:22;;;;;;;66.32;26.70;;;1.50;99.90;;;;;;5025135;28;20152;-69
2022/01/25 12:50:52;;;;;;;68.07;28.95;;;1.60;99.90;;;;;;5037998;28;20053;-68
2022/01/25 12:53:26;;;;;;;59.35;25.80;;;1.60;99.90;;;;;;5033757;28;20415;-69
2022/01/25 12:55:57;;;;;;;69.88;27.58;;;1.60;99.90;;;;;;5036018;28;20048;-68
2022/01/25 12:58:28;;;;;;;63.25;27.30;;;1.70;99.90;;;;;;5022818;28;20053;-68
2022/01/25 13:00:59;;;;;;;61.88;28.13;;;1.70;99.90;;;;;;5039007;28;20570;-68
2022/01/25 13:03:45;;;;;;;61.58;27.38;;;1.60;99.90;;;;;;5032161;28;20440;-67
2022/01/25 13:06:15;;;;;;;63.05;25.40;;;1.60;99.90;;;;;;5012815;28;20133;-68
2022/01/25 13:11:50;;;;;;;65.38;28.35;;;1.70;99.90;;;;;;5031963;28;20049;-68
2022/01/25 13:17:01;;;;;;;67.63;26.90;;;1.80;99.90;;;;;;5031592;28;20187;-67
2022/01/25 13:19:41;;;;;;;66.38;27.77;;;1.70;99.90;;;;;;5036689;28;20057;-69
2022/01/25 13:22:16;;;;;;;70.90;29.23;;;1.60;99.90;;;;;;5032576;28;20045;-69
2022/01/25 13:25:11;;;;;;;69.65;29.60;;;1.50;99.90;;;;;;5031755;28;20103;-68
2022/01/25 13:27:49;;;;;;;65.80;26.75;;;1.50;99.90;;;;;;5029208;28;20041;-68
2022/01/25 13:30:40;;;;;;;75.18;30.70;;;1.60;99.90;;;;;;5026370;28;20069;-68
2022/01/25 13:33:13;;;;;;;63.45;26.63;;;1.70;99.90;;;;;;5029196;28;20131;-68
2022/01/25 13:35:47;;;;;;;63.95;27.75;;;1.70;99.90;;;;;;5030333;28;20064;-69
2022/01/25 13:38:16;;;;;;;61.33;26.13;;;1.70;99.90;;;;;;5032205;28;20136;-68
2022/01/25 13:46:32;;;;;;;54.17;24.88;;;1.70;99.90;;;;;;5028502;28;20190;-67
2022/01/25 13:49:12;;;;;;;57.13;23.33;;;1.50;99.90;;;;;;5047585;28;20131;-67
2022/01/25 13:51:52;;;;;;;60.08;25.92;;;1.50;99.90;;;;;;5031814;28;20045;-69
2022/01/25 13:54:24;;;;;;;67.25;26.63;;;1.40;99.90;;;;;;5032155;28;20072;-68
2022/01/25 13:56:51;;;;;;;60.30;24.20;;;1.20;99.90;;;;;;5031130;28;20049;-67
2022/01/25 13:59:22;;;;;;;71.25;30.02;;;1.20;99.90;;;;;;5027511;28;20574;-69
2022/01/25 14:01:50;;;;;;;64.75;28.13;;;1.30;99.90;;;;;;5035661;28;20518;-68
2022/01/25 14:04:28;;;;;;;66.50;26.90;;;1.40;99.90;;;;;;5034565;28;20071;-69
2022/01/25 14:06:58;;;;;;;78.05;29.60;;;1.40;99.90;;;;;;5031567;28;20094;-67
2022/01/25 14:09:31;;;;;;;76.13;27.23;;;1.30;99.90;;;;;;5035131;28;20465;-68
2022/01/25 14:23:21;;;;;;;69.57;28.98;;;1.40;99.90;;;;;;5035424;28;20072;-69
2022/01/25 14:25:58;;;;;;;69.60;28.00;;;1.40;99.90;;;;;;5028476;28;20056;-68
2022/01/25 14:28:26;;;;;;;72.70;29.15;;;1.30;99.90;;;;;;5029824;28;20044;-68
2022/01/25 14:30:56;;;;;;;67.07;29.48;;;1.30;99.90;;;;;;5028316;28;20768;-68
2022/01/25 14:33:26;;;;;;;65.78;27.52;;;1.30;99.90;;;;;;5034923;28;20399;-70
2022/01/25 14:35:56;;;;;;;78.40;32.20;;;1.30;99.90;;;;;;5041735;28;20061;-68
2022/01/25 14:38:29;;;;;;;68.55;27.13;;;1.40;99.90;;;;;;5043511;28;20045;-68
2022/01/25 14:41:04;;;;;;;70.95;28.58;;;1.40;99.90;;;;;;5034603;28;20055;-68
2022/01/25 14:43:45;;;;;;;69.43;27.17;;;1.40;99.90;;;;;;5043374;28;20044;-68
2022/01/25 14:46:28;;;;;;;63.72;26.92;;;1.40;99.90;;;;;;5039967;28;20415;-68
2022/01/25 14:49:06;;;;;;;70.15;26.23;;;1.40;99.90;;;;;;5041693;28;20057;-68
2022/01/25 14:51:42;;;;;;;61.45;25.98;;;1.40;99.90;;;;;;5039894;28;20384;-69
2022/01/25 14:54:13;;;;;;;63.35;27.45;;;1.40;99.90;;;;;;5043185;28;20048;-68
2022/01/25 14:56:55;;;;;;;62.90;26.58;;;1.40;99.90;;;;;;5035283;28;20057;-68
2022/01/25 14:59:36;;;;;;;58.47;26.08;;;1.30;99.90;;;;;;5029975;28;20055;-68
2022/01/25 15:02:12;;;;;;;59.00;24.30;;;1.20;99.90;;;;;;5009037;28;20070;-68
2022/01/25 15:04:44;;;;;;;54.92;24.42;;;1.20;99.90;;;;;;5009025;28;20579;-68
2022/01/25 15:07:20;;;;;;;59.65;24.70;;;1.20;99.90;;;;;;5022998;28;20045;-68
2022/01/25 15:09:52;;;;;;;62.50;24.85;;;1.20;99.90;;;;;;5029814;28;20535;-68
2022/01/25 15:12:32;;;;;;;67.50;28.27;;;1.10;99.90;;;;;;5034084;28;20415;-69